createdAt,value
2015-10-20T00:00:11.564Z,90
2015-10-20T00:01:10.972Z,90
2015-10-20T00:02:09.929Z,90
2015-10-20T00:03:08.947Z,90
2015-10-20T00:04:10.669Z,90
2015-10-20T00:05:09.639Z,90
2015-10-20T00:06:08.597Z,90
2015-10-20T00:07:07.552Z,90
2015-10-20T00:08:06.523Z,90
2015-10-20T00:09:05.480Z,90
2015-10-20T00:10:04.435Z,90
2015-10-20T00:11:03.406Z,90
2015-10-20T00:12:02.363Z,90
2015-10-20T00:13:01.381Z,90
2015-10-20T00:14:03.102Z,90
2015-10-20T00:15:02.058Z,90
2015-10-20T00:16:01.030Z,90
2015-10-20T00:17:00.001Z,91
2015-10-20T00:17:59.207Z,90
2015-10-20T00:18:58.163Z,90
2015-10-20T00:19:57.135Z,90
2015-10-20T00:20:56.090Z,90
2015-10-20T00:21:58.076Z,90
2015-10-20T00:22:54.073Z,90
2015-10-20T00:23:55.779Z,90
2015-10-20T00:24:54.751Z,90
2015-10-20T00:25:53.706Z,90
2015-10-20T00:26:52.662Z,90
2015-10-20T00:28:50.589Z,90
2015-10-20T00:29:49.578Z,90
2015-10-20T00:30:48.501Z,90
2015-10-20T00:31:47.489Z,91
2015-10-20T00:32:46.741Z,90
2015-10-20T00:33:48.463Z,91
2015-10-20T00:34:47.700Z,90
2015-10-20T00:35:46.640Z,91
2015-10-20T00:36:45.862Z,91
2015-10-20T00:37:45.067Z,91
2015-10-20T00:38:44.305Z,91
2015-10-20T00:39:43.525Z,91
2015-10-20T00:40:42.729Z,91
2015-10-20T00:41:41.936Z,91
2015-10-20T00:42:41.220Z,91
2015-10-20T00:43:42.941Z,91
2015-10-20T00:44:42.162Z,91
2015-10-20T00:45:41.369Z,91
2015-10-20T00:46:40.589Z,91
2015-10-20T00:47:39.811Z,91
2015-10-20T00:48:39.017Z,91
2015-10-20T00:49:38.239Z,91
2015-10-20T00:50:37.460Z,91
2015-10-20T00:51:36.666Z,91
2015-10-20T00:52:35.950Z,91
2015-10-20T00:53:37.671Z,91
2015-10-20T00:54:36.893Z,91
2015-10-20T00:55:36.098Z,91
2015-10-20T00:56:35.336Z,91
2015-10-20T00:57:34.541Z,91
2015-10-20T00:58:33.763Z,91
2015-10-20T00:59:32.984Z,91
2015-10-20T01:00:32.190Z,91
2015-10-20T01:01:31.412Z,91
2015-10-20T01:02:30.680Z,91
2015-10-20T01:03:32.402Z,91
2015-10-20T01:04:31.623Z,91
2015-10-20T01:05:30.829Z,91
2015-10-20T01:06:30.051Z,91
2015-10-20T01:07:29.271Z,91
2015-10-20T01:09:27.699Z,91
2015-10-20T01:10:26.920Z,91
2015-10-20T01:11:26.142Z,91
2015-10-20T01:12:25.410Z,91
2015-10-20T01:13:27.147Z,91
2015-10-20T01:15:28.606Z,91
2015-10-20T01:16:24.796Z,91
2015-10-20T01:17:24.002Z,91
2015-10-20T01:20:21.901Z,91
2015-10-20T01:21:20.873Z,91
2015-10-20T01:22:20.141Z,91
2015-10-20T01:23:21.878Z,91
2015-10-20T01:24:21.083Z,91
2015-10-20T01:25:20.320Z,91
2015-10-20T01:26:19.511Z,91
2015-10-20T01:27:18.748Z,91
2015-10-20T01:28:17.970Z,91
2015-10-20T01:29:17.173Z,91
2015-10-20T01:30:16.395Z,91
2015-10-20T01:31:15.647Z,91
2015-10-20T01:32:14.884Z,91
2015-10-20T01:33:16.605Z,91
2015-10-20T01:34:15.827Z,91
2015-10-20T01:35:15.033Z,91
2015-10-20T01:36:14.254Z,91
2015-10-20T01:37:13.475Z,91
2015-10-20T01:38:12.681Z,91
2015-10-20T01:39:11.902Z,91
2015-10-20T01:40:11.124Z,91
2015-10-20T01:41:10.346Z,91
2015-10-20T01:42:09.614Z,91
2015-10-20T01:43:11.335Z,91
2015-10-20T01:45:09.779Z,91
2015-10-20T01:46:09.000Z,91
2015-10-20T01:47:08.206Z,91
2015-10-20T01:48:07.427Z,91
2015-10-20T01:49:06.648Z,91
2015-10-20T01:50:05.854Z,91
2015-10-20T01:51:05.076Z,91
2015-10-20T01:52:03.907Z,91
2015-10-20T01:53:06.066Z,91
2015-10-20T01:54:05.287Z,91
2015-10-20T01:55:04.509Z,91
2015-10-20T01:56:03.668Z,91
2015-10-20T01:57:02.937Z,91
2015-10-20T01:58:02.157Z,91
2015-10-20T01:59:01.379Z,91
2015-10-20T02:00:00.585Z,91
2015-10-20T02:00:59.807Z,91
2015-10-20T02:01:59.076Z,91
2015-10-20T02:03:00.796Z,91
2015-10-20T02:04:00.018Z,91
2015-10-20T02:04:59.239Z,91
2015-10-20T02:05:58.445Z,91
2015-10-20T02:07:56.888Z,91
2015-10-20T02:08:56.094Z,91
2015-10-20T02:09:55.315Z,91
2015-10-20T02:10:54.537Z,91
2015-10-20T02:11:53.806Z,91
2015-10-20T02:12:55.526Z,91
2015-10-20T02:14:53.970Z,91
2015-10-20T02:15:53.189Z,91
2015-10-20T02:16:52.394Z,91
2015-10-20T02:18:50.935Z,91
2015-10-20T02:20:49.335Z,91
2015-10-20T02:22:50.186Z,91
2015-10-20T02:23:49.400Z,91
2015-10-20T02:24:48.601Z,91
2015-10-20T02:25:47.834Z,91
2015-10-20T02:26:47.143Z,91
2015-10-20T02:27:46.250Z,91
2015-10-20T02:28:45.455Z,91
2015-10-20T02:29:44.689Z,91
2015-10-20T02:30:43.893Z,91
2015-10-20T02:31:43.160Z,91
2015-10-20T02:33:44.100Z,91
2015-10-20T02:34:43.305Z,91
2015-10-20T02:35:42.525Z,91
2015-10-20T02:36:41.746Z,91
2015-10-20T02:37:40.982Z,91
2015-10-20T02:38:40.173Z,91
2015-10-20T02:39:39.395Z,91
2015-10-20T02:40:38.600Z,91
2015-10-20T02:42:39.606Z,91
2015-10-20T02:43:38.827Z,91
2015-10-20T02:44:38.033Z,91
2015-10-20T02:45:37.253Z,91
2015-10-20T02:46:36.460Z,91
2015-10-20T02:47:35.682Z,91
2015-10-20T02:48:34.903Z,91
2015-10-20T02:49:34.109Z,91
2015-10-20T02:51:32.599Z,91
2015-10-20T02:52:34.320Z,91
2015-10-20T02:53:33.541Z,91
2015-10-20T02:54:32.764Z,91
2015-10-20T02:55:31.969Z,91
2015-10-20T02:56:31.191Z,91
2015-10-20T02:57:30.412Z,91
2015-10-20T02:58:29.633Z,91
2015-10-20T02:59:28.855Z,91
2015-10-20T03:00:28.060Z,91
2015-10-20T03:01:27.329Z,91
2015-10-20T03:02:29.051Z,91
2015-10-20T03:03:28.270Z,91
2015-10-20T03:04:27.490Z,91
2015-10-20T03:05:26.696Z,91
2015-10-20T03:06:25.918Z,91
2015-10-20T03:07:25.140Z,91
2015-10-20T03:08:24.346Z,91
2015-10-20T03:10:22.788Z,91
2015-10-20T03:11:22.057Z,91
2015-10-20T03:12:23.778Z,91
2015-10-20T03:13:22.999Z,91
2015-10-20T03:14:22.205Z,91
2015-10-20T03:15:21.427Z,91
2015-10-20T03:16:20.633Z,91
2015-10-20T03:17:19.854Z,91
2015-10-20T03:18:19.076Z,91
2015-10-20T03:19:18.298Z,91
2015-10-20T03:20:17.487Z,91
2015-10-20T03:21:16.771Z,91
2015-10-20T03:22:18.493Z,91
2015-10-20T03:23:17.699Z,91
2015-10-20T03:24:16.920Z,91
2015-10-20T03:25:16.126Z,91
2015-10-20T03:26:15.348Z,91
2015-10-20T03:27:14.554Z,91
2015-10-20T03:28:13.776Z,91
2015-10-20T03:29:12.981Z,91
2015-10-20T03:30:12.203Z,91
2015-10-20T03:31:11.471Z,91
2015-10-20T03:32:13.192Z,91
2015-10-20T03:33:12.414Z,91
2015-10-20T03:34:11.619Z,91
2015-10-20T03:35:10.825Z,91
2015-10-20T03:36:10.047Z,91
2015-10-20T03:37:09.253Z,91
2015-10-20T03:38:08.474Z,91
2015-10-20T03:39:07.695Z,91
2015-10-20T03:40:06.917Z,91
2015-10-20T03:42:07.891Z,91
2015-10-20T03:43:07.113Z,91
2015-10-20T03:44:06.334Z,91
2015-10-20T03:45:05.540Z,91
2015-10-20T03:47:03.983Z,91
2015-10-20T03:49:05.426Z,91
2015-10-20T03:50:01.614Z,91
2015-10-20T03:51:00.882Z,91
2015-10-20T03:52:02.603Z,91
2015-10-20T03:53:01.809Z,91
2015-10-20T03:54:01.030Z,91
2015-10-20T03:55:00.236Z,91
2015-10-20T03:56:02.489Z,91
2015-10-20T03:56:58.679Z,91
2015-10-20T03:57:57.885Z,91
2015-10-20T03:58:57.091Z,91
2015-10-20T03:59:56.312Z,91
2015-10-20T04:00:55.581Z,91
2015-10-20T04:01:57.302Z,91
2015-10-20T04:02:56.524Z,91
2015-10-20T04:03:55.729Z,91
2015-10-20T04:06:53.379Z,91
2015-10-20T04:07:52.584Z,91
2015-10-20T04:08:51.791Z,91
2015-10-20T04:09:51.012Z,91
2015-10-20T04:10:50.280Z,91
2015-10-20T04:11:52.001Z,91
2015-10-20T04:12:51.223Z,91
2015-10-20T04:13:50.429Z,91
2015-10-20T04:14:49.635Z,91
2015-10-20T04:15:48.856Z,91
2015-10-20T04:16:48.062Z,91
2015-10-20T04:17:47.284Z,91
2015-10-20T04:18:46.489Z,91
2015-10-20T04:19:45.696Z,91
2015-10-20T04:20:44.979Z,91
2015-10-20T04:21:46.700Z,91
2015-10-20T04:22:45.907Z,91
2015-10-20T04:23:45.112Z,91
2015-10-20T04:24:44.333Z,91
2015-10-20T04:25:43.540Z,91
2015-10-20T04:26:42.745Z,91
2015-10-20T04:28:44.220Z,91
2015-10-20T04:29:40.394Z,91
2015-10-20T04:30:39.662Z,91
2015-10-20T04:31:41.400Z,91
2015-10-20T04:33:39.811Z,91
2015-10-20T04:34:39.017Z,91
2015-10-20T04:35:38.236Z,91
2015-10-20T04:36:37.442Z,91
2015-10-20T04:37:36.663Z,91
2015-10-20T04:38:35.869Z,91
2015-10-20T04:40:34.358Z,91
2015-10-20T04:41:36.080Z,91
2015-10-20T04:42:35.286Z,91
2015-10-20T04:43:34.507Z,91
2015-10-20T04:44:33.713Z,91
2015-10-20T04:46:32.140Z,91
2015-10-20T04:47:31.346Z,91
2015-10-20T04:48:30.569Z,91
2015-10-20T04:49:29.774Z,91
2015-10-20T04:50:29.058Z,91
2015-10-20T04:51:30.763Z,91
2015-10-20T04:52:29.969Z,91
2015-10-20T04:53:29.191Z,91
2015-10-20T04:54:28.412Z,91
2015-10-20T04:55:27.618Z,90
2015-10-20T04:56:26.574Z,91
2015-10-20T04:57:25.780Z,90
2015-10-20T04:58:24.736Z,91
2015-10-20T05:00:23.226Z,91
2015-10-20T05:01:24.948Z,91
2015-10-20T05:02:24.154Z,91
2015-10-20T05:03:23.374Z,91
2015-10-20T05:04:22.581Z,91
2015-10-20T05:05:21.786Z,91
2015-10-20T05:06:21.007Z,91
2015-10-20T05:07:20.214Z,91
2015-10-20T05:09:18.640Z,91
2015-10-20T05:10:17.909Z,91
2015-10-20T05:11:19.630Z,91
2015-10-20T05:12:18.836Z,91
2015-10-20T05:13:18.058Z,91
2015-10-20T05:14:17.264Z,90
2015-10-20T05:15:16.219Z,90
2015-10-20T05:16:15.175Z,90
2015-10-20T05:17:14.147Z,90
2015-10-20T05:18:13.103Z,91
2015-10-20T05:19:12.308Z,90
2015-10-20T05:20:11.327Z,90
2015-10-20T05:21:13.048Z,90
2015-10-20T05:22:12.005Z,90
2015-10-20T05:23:10.958Z,90
2015-10-20T05:24:09.913Z,90
2015-10-20T05:25:08.869Z,90
2015-10-20T05:26:07.841Z,90
2015-10-20T05:27:06.797Z,90
2015-10-20T05:28:05.752Z,90
2015-10-20T05:29:04.708Z,90
2015-10-20T05:30:03.711Z,90
2015-10-20T05:31:05.447Z,90
2015-10-20T05:32:04.404Z,90
2015-10-20T05:34:02.316Z,90
2015-10-20T05:35:01.271Z,90
2015-10-20T05:36:00.227Z,90
2015-10-20T05:36:59.183Z,90
2015-10-20T05:37:58.138Z,90
2015-10-20T05:38:57.095Z,90
2015-10-20T05:39:56.113Z,90
2015-10-20T05:40:57.835Z,90
2015-10-20T05:41:56.790Z,90
2015-10-20T05:42:55.762Z,90
2015-10-20T05:43:54.702Z,90
2015-10-20T05:44:53.657Z,90
2015-10-20T05:45:52.629Z,90
2015-10-20T05:46:51.570Z,90
2015-10-20T05:48:49.497Z,90
2015-10-20T05:49:48.515Z,90
2015-10-20T05:50:50.220Z,90
2015-10-20T05:51:49.193Z,90
2015-10-20T05:52:48.273Z,90
2015-10-20T05:53:47.104Z,90
2015-10-20T05:54:46.059Z,90
2015-10-20T05:55:45.015Z,90
2015-10-20T05:56:43.940Z,90
2015-10-20T05:57:42.678Z,90
2015-10-20T05:59:40.651Z,90
2015-10-20T06:00:42.373Z,90
2015-10-20T06:01:41.326Z,90
2015-10-20T06:03:39.254Z,90
2015-10-20T06:04:38.194Z,90
2015-10-20T06:05:40.181Z,90
2015-10-20T06:08:33.767Z,90
2015-10-20T06:09:32.786Z,90
2015-10-20T06:10:34.508Z,90
2015-10-20T06:11:33.463Z,90
2015-10-20T06:12:35.466Z,90
2015-10-20T06:13:34.406Z,90
2015-10-20T06:15:29.302Z,90
2015-10-20T06:16:28.258Z,90
2015-10-20T06:17:30.261Z,90
2015-10-20T06:18:26.169Z,90
2015-10-20T06:19:25.188Z,90
2015-10-20T06:20:26.910Z,90
2015-10-20T06:21:25.866Z,90
2015-10-20T06:22:24.821Z,90
2015-10-20T06:23:23.777Z,90
2015-10-20T06:24:22.732Z,90
2015-10-20T06:25:21.438Z,90
2015-10-20T06:26:20.394Z,90
2015-10-20T06:27:19.085Z,90
2015-10-20T06:28:18.057Z,90
2015-10-20T06:29:16.809Z,90
2015-10-20T06:30:18.530Z,91
2015-10-20T06:31:17.486Z,90
2015-10-20T06:32:16.192Z,90
2015-10-20T06:33:14.882Z,90
2015-10-20T06:34:13.588Z,90
2015-10-20T06:35:12.293Z,90
2015-10-20T06:36:11.000Z,90
2015-10-20T06:37:09.690Z,90
2015-10-20T06:38:08.393Z,90
2015-10-20T06:39:07.161Z,90
2015-10-20T06:40:08.873Z,90
2015-10-20T06:41:07.578Z,90
2015-10-20T06:43:04.974Z,90
2015-10-20T06:44:03.681Z,90
2015-10-20T06:45:02.386Z,90
2015-10-20T06:46:01.092Z,90
2015-10-20T06:46:59.782Z,90
2015-10-20T06:47:58.487Z,90
2015-10-20T06:48:57.240Z,90
2015-10-20T06:49:58.962Z,90
2015-10-20T06:50:57.667Z,90
2015-10-20T06:51:56.358Z,90
2015-10-20T06:52:55.064Z,90
2015-10-20T06:53:53.754Z,90
2015-10-20T06:55:51.166Z,90
2015-10-20T06:56:49.872Z,90
2015-10-20T06:57:48.562Z,90
2015-10-20T06:58:47.314Z,90
2015-10-20T06:59:49.052Z,90
2015-10-20T07:00:47.757Z,90
2015-10-20T07:01:46.448Z,90
2015-10-20T10:31:49.074Z,85
2015-10-20T10:32:47.734Z,85
2015-10-20T10:33:46.424Z,85
2015-10-20T10:34:45.130Z,85
2015-10-20T10:36:42.510Z,85
2015-10-20T10:37:41.216Z,85
2015-10-20T10:38:39.922Z,85
2015-10-20T10:39:38.658Z,85
2015-10-20T10:40:40.380Z,85
2015-10-20T10:41:39.071Z,85
2015-10-20T10:42:37.776Z,85
2015-10-20T10:43:36.451Z,85
2015-10-20T10:45:33.847Z,85
2015-10-20T10:46:32.553Z,85
2015-10-20T10:47:31.243Z,85
2015-10-20T10:49:28.682Z,85
2015-10-20T10:51:29.298Z,85
2015-10-20T10:52:27.785Z,85
2015-10-20T10:53:26.491Z,85
2015-10-20T10:55:23.871Z,85
2015-10-20T10:57:21.268Z,85
2015-10-20T10:58:19.958Z,85
2015-10-20T10:59:18.711Z,85
2015-10-20T11:00:20.417Z,85
2015-10-20T11:01:19.123Z,85
2015-10-20T11:02:17.797Z,85
2015-10-20T11:03:16.488Z,85
2015-10-20T11:04:15.178Z,85
2015-10-20T11:05:13.868Z,85
2015-10-20T11:06:12.652Z,85
2015-10-20T11:07:11.265Z,85
2015-10-20T11:08:09.954Z,85
2015-10-20T11:09:08.708Z,85
2015-10-20T11:10:10.413Z,85
2015-10-20T11:11:09.119Z,85
2015-10-20T11:12:07.810Z,85
2015-10-20T11:13:06.499Z,85
2015-10-20T11:14:05.190Z,85
2015-10-20T11:15:03.880Z,85
2015-10-20T11:16:02.695Z,85
2015-10-20T11:17:01.276Z,84
2015-10-20T11:17:59.700Z,84
2015-10-20T11:18:58.187Z,84
2015-10-20T11:19:59.909Z,84
2015-10-20T11:21:02.178Z,84
2015-10-20T11:22:04.477Z,84
2015-10-20T11:23:06.746Z,84
2015-10-20T11:26:13.044Z,84
2015-10-20T11:27:15.054Z,84
2015-10-20T11:28:17.064Z,84
2015-10-20T11:29:19.139Z,84
2015-10-20T11:30:20.841Z,84
2015-10-20T11:31:22.857Z,84
2015-10-20T11:32:24.872Z,83
2015-10-20T11:33:26.638Z,83
2015-10-20T11:35:30.157Z,83
2015-10-20T11:36:31.923Z,83
2015-10-20T11:37:33.426Z,83
2015-10-20T11:38:34.678Z,83
2015-10-20T11:39:35.977Z,83
2015-10-20T11:40:37.698Z,83
2015-10-20T11:41:38.951Z,83
2015-10-20T11:42:40.203Z,82
2015-10-20T11:43:41.205Z,83
2015-10-20T11:44:42.458Z,82
2015-10-20T11:45:43.445Z,82
2015-10-20T11:46:44.447Z,82
2015-10-20T11:48:46.703Z,83
2015-10-20T11:49:48.003Z,83
2015-10-20T11:51:50.977Z,83
2015-10-20T11:52:52.230Z,83
2015-10-20T11:53:53.483Z,83
2015-10-20T11:54:54.735Z,83
2015-10-20T11:55:55.988Z,83
2015-10-20T11:56:57.256Z,83
2015-10-20T11:57:58.500Z,83
2015-10-20T12:00:01.318Z,83
2015-10-20T12:01:03.023Z,83
2015-10-20T12:02:04.542Z,83
2015-10-20T12:03:05.795Z,83
2015-10-20T12:04:07.048Z,83
2015-10-20T12:05:08.550Z,83
2015-10-20T12:06:10.068Z,83
2015-10-20T12:07:11.320Z,83
2015-10-20T12:08:12.823Z,83
2015-10-20T12:09:14.093Z,83
2015-10-20T12:10:15.392Z,83
2015-10-20T12:11:17.097Z,83
2015-10-20T12:12:18.351Z,83
2015-10-20T12:13:19.603Z,83
2015-10-20T12:14:20.872Z,83
2015-10-20T12:15:22.359Z,83
2015-10-20T12:16:23.377Z,83
2015-10-20T12:17:24.614Z,83
2015-10-20T12:18:25.883Z,83
2015-10-20T12:19:27.135Z,83
2015-10-20T12:20:28.451Z,83
2015-10-20T12:21:30.156Z,82
2015-10-20T12:22:31.159Z,82
2015-10-20T12:23:32.147Z,82
2015-10-20T12:24:33.149Z,82
2015-10-20T12:25:34.152Z,82
2015-10-20T12:26:35.139Z,82
2015-10-20T12:27:36.141Z,82
2015-10-20T12:28:37.144Z,82
2015-10-20T12:29:38.131Z,82
2015-10-20T12:30:39.196Z,82
2015-10-20T12:32:41.907Z,82
2015-10-20T12:33:42.661Z,82
2015-10-20T12:34:43.382Z,82
2015-10-20T12:35:44.385Z,82
2015-10-20T12:37:46.374Z,82
2015-10-20T12:38:47.362Z,82
2015-10-20T12:39:48.364Z,82
2015-10-20T12:40:49.413Z,82
2015-10-20T12:41:51.135Z,82
2015-10-20T12:42:52.122Z,83
2015-10-20T12:43:53.375Z,83
2015-10-20T12:44:54.628Z,83
2015-10-20T12:45:55.896Z,83
2015-10-20T12:46:57.148Z,83
2015-10-20T12:47:58.402Z,83
2015-10-20T12:48:59.654Z,83
2015-10-20T12:51:02.222Z,83
2015-10-20T12:52:03.928Z,83
2015-10-20T12:53:05.181Z,83
2015-10-20T12:54:06.434Z,83
2015-10-20T12:55:07.686Z,83
2015-10-20T12:56:08.939Z,83
2015-10-20T12:57:10.191Z,83
2015-10-20T12:58:11.445Z,83
2015-10-20T12:59:12.698Z,83
2015-10-20T13:00:13.950Z,83
2015-10-20T13:01:15.265Z,83
2015-10-20T13:02:16.970Z,83
2015-10-20T13:03:18.223Z,83
2015-10-20T13:04:19.492Z,82
2015-10-20T13:05:20.494Z,82
2015-10-20T13:06:21.481Z,82
2015-10-20T13:07:22.469Z,82
2015-10-20T13:08:23.472Z,82
2015-10-20T13:09:24.474Z,82
2015-10-20T13:10:25.477Z,82
2015-10-20T13:11:26.292Z,82
2015-10-20T13:12:27.997Z,82
2015-10-20T13:13:28.735Z,82
2015-10-20T13:15:30.209Z,82
2015-10-20T13:16:30.963Z,82
2015-10-20T13:17:31.699Z,82
2015-10-20T13:18:32.436Z,82
2015-10-20T13:19:33.188Z,82
2015-10-20T13:20:33.910Z,82
2015-10-20T13:21:34.710Z,82
2015-10-20T13:22:36.432Z,82
2015-10-20T13:23:37.169Z,82
2015-10-20T13:24:37.905Z,82
2015-10-20T13:25:38.643Z,82
2015-10-20T13:26:39.395Z,82
2015-10-20T13:27:40.133Z,82
2015-10-20T13:28:40.870Z,82
2015-10-20T13:29:41.623Z,82
2015-10-20T13:30:42.360Z,82
2015-10-20T13:31:43.159Z,81
2015-10-20T13:32:44.865Z,81
2015-10-20T13:34:46.089Z,82
2015-10-20T13:35:46.826Z,82
2015-10-20T13:36:47.563Z,82
2015-10-20T13:37:48.300Z,81
2015-10-20T13:38:48.803Z,82
2015-10-20T13:39:49.540Z,82
2015-10-20T13:40:50.278Z,81
2015-10-20T13:41:50.826Z,82
2015-10-20T13:42:52.533Z,81
2015-10-20T13:43:53.020Z,81
2015-10-20T13:45:53.728Z,81
2015-10-20T13:46:53.965Z,81
2015-10-20T13:47:54.202Z,81
2015-10-20T13:48:54.659Z,81
2015-10-20T13:49:54.661Z,81
2015-10-20T13:50:54.883Z,81
2015-10-20T13:51:55.167Z,81
2015-10-20T13:52:56.873Z,81
2015-10-20T13:53:57.109Z,81
2015-10-20T13:54:57.331Z,81
2015-10-20T13:55:57.552Z,81
2015-10-20T13:56:57.789Z,81
2015-10-20T13:57:58.011Z,81
2015-10-20T13:58:58.248Z,81
2015-10-20T13:59:58.485Z,81
2015-10-20T14:00:58.708Z,81
2015-10-20T14:01:58.991Z,81
2015-10-20T14:03:00.712Z,81
2015-10-20T14:04:01.200Z,81
2015-10-20T14:05:01.421Z,81
2015-10-20T14:06:01.658Z,81
2015-10-20T14:07:01.894Z,81
2015-10-20T14:08:02.116Z,81
2015-10-20T14:09:02.604Z,81
2015-10-20T14:10:02.840Z,81
2015-10-20T14:11:03.313Z,81
2015-10-20T14:12:03.862Z,81
2015-10-20T14:13:05.568Z,81
2015-10-20T14:14:06.055Z,81
2015-10-20T14:15:06.557Z,81
2015-10-20T14:17:07.781Z,82
2015-10-20T14:19:09.272Z,82
2015-10-20T14:20:10.009Z,82
2015-10-20T14:21:10.746Z,82
2015-10-20T14:22:11.545Z,82
2015-10-20T14:23:13.267Z,82
2015-10-20T14:24:14.004Z,82
2015-10-20T14:25:14.756Z,82
2015-10-20T14:26:15.494Z,82
2015-10-20T14:27:16.231Z,82
2015-10-20T14:28:16.984Z,82
2015-10-20T14:29:17.720Z,82
2015-10-20T14:30:18.473Z,82
2015-10-20T14:31:19.210Z,82
2015-10-20T14:32:19.994Z,82
2015-10-20T14:33:21.715Z,82
2015-10-20T14:34:22.718Z,82
2015-10-20T14:35:23.721Z,82
2015-10-20T14:36:24.708Z,82
2015-10-20T14:37:25.712Z,83
2015-10-20T14:38:26.963Z,83
2015-10-20T14:39:28.232Z,83
2015-10-20T14:41:30.738Z,83
2015-10-20T14:42:32.053Z,83
2015-10-20T14:43:33.759Z,83
2015-10-20T14:44:35.027Z,83
2015-10-20T14:45:36.280Z,83
2015-10-20T14:46:37.533Z,83
2015-10-20T14:47:38.800Z,83
2015-10-20T14:48:40.053Z,83
2015-10-20T14:49:41.306Z,83
2015-10-20T14:50:42.558Z,83
2015-10-20T14:51:43.827Z,83
2015-10-20T14:52:45.392Z,83
2015-10-20T14:53:47.114Z,83
2015-10-20T14:55:50.135Z,83
2015-10-20T14:56:51.591Z,83
2015-10-20T14:57:53.171Z,83
2015-10-20T14:58:54.691Z,83
2015-10-20T15:00:57.711Z,83
2015-10-20T15:01:59.229Z,83
2015-10-20T15:03:00.794Z,83
2015-10-20T15:04:02.500Z,83
2015-10-20T15:05:04.019Z,83
2015-10-20T15:06:05.537Z,83
2015-10-20T15:07:07.055Z,83
2015-10-20T15:08:08.824Z,83
2015-10-20T15:09:10.593Z,83
2015-10-20T15:10:12.377Z,83
2015-10-20T15:11:14.129Z,83
2015-10-20T15:12:15.913Z,83
2015-10-20T15:13:17.729Z,83
2015-10-20T15:14:19.449Z,83
2015-10-20T15:15:21.218Z,83
2015-10-20T15:17:24.755Z,83
2015-10-20T15:18:26.523Z,83
2015-10-20T15:19:28.292Z,83
2015-10-20T15:20:30.076Z,83
2015-10-20T15:21:31.843Z,83
2015-10-20T15:22:33.612Z,83
2015-10-20T15:24:37.165Z,83
2015-10-20T15:26:40.701Z,83
2015-10-20T15:27:42.470Z,83
2015-10-20T15:28:44.253Z,83
2015-10-20T15:29:46.022Z,83
2015-10-20T15:30:47.789Z,83
2015-10-20T15:31:49.559Z,83
2015-10-20T15:32:51.342Z,83
2015-10-20T15:33:53.173Z,83
2015-10-20T15:34:54.879Z,83
2015-10-20T15:35:56.650Z,84
2015-10-20T15:36:58.684Z,84
2015-10-20T15:38:00.718Z,84
2015-10-20T15:40:04.755Z,84
2015-10-20T15:41:06.789Z,84
2015-10-20T15:43:10.841Z,84
2015-10-20T15:44:13.187Z,84
2015-10-20T15:45:14.908Z,84
2015-10-20T15:46:17.193Z,84
2015-10-20T15:47:19.477Z,84
2015-10-20T15:48:21.682Z,84
2015-10-20T15:49:24.044Z,84
2015-10-20T15:50:26.314Z,84
2015-10-20T15:51:28.597Z,84
2015-10-20T15:52:30.881Z,84
2015-10-20T15:54:35.512Z,84
2015-10-20T15:55:37.232Z,84
2015-10-20T15:56:39.520Z,84
2015-10-20T15:57:41.805Z,84
2015-10-20T15:58:44.072Z,84
2015-10-20T15:59:46.356Z,84
2015-10-20T16:00:48.641Z,84
2015-10-20T16:02:53.223Z,84
2015-10-20T16:03:51.665Z,84
2015-10-20T16:04:50.151Z,84
2015-10-20T16:05:51.873Z,84
2015-10-20T16:06:50.313Z,84
2015-10-20T16:07:48.753Z,84
2015-10-20T16:08:47.193Z,84
2015-10-20T16:09:45.633Z,84
2015-10-20T16:10:44.074Z,84
2015-10-20T16:11:42.514Z,84
2015-10-20T16:12:40.970Z,84
2015-10-20T16:13:39.410Z,85
2015-10-20T16:14:38.162Z,84
2015-10-20T16:15:39.869Z,85
2015-10-20T16:16:38.511Z,85
2015-10-20T16:17:37.265Z,85
2015-10-20T16:18:35.955Z,85
2015-10-20T16:19:34.645Z,85
2015-10-20T16:21:32.041Z,85
2015-10-20T16:22:30.731Z,85
2015-10-20T16:23:29.437Z,85
2015-10-20T16:24:28.190Z,85
2015-10-20T16:25:29.849Z,85
2015-10-20T16:26:28.602Z,85
2015-10-20T16:27:27.305Z,85
2015-10-20T16:28:25.994Z,85
2015-10-20T16:29:24.700Z,85
2015-10-20T16:30:23.391Z,85
2015-10-20T16:31:22.346Z,85
2015-10-20T16:34:19.261Z,85
2015-10-20T16:35:20.983Z,85
2015-10-20T16:36:19.938Z,85
2015-10-20T16:37:19.144Z,85
2015-10-20T16:38:18.365Z,85
2015-10-20T16:39:17.571Z,85
2015-10-20T16:40:16.777Z,85
2015-10-20T16:41:15.686Z,85
2015-10-20T16:42:15.189Z,85
2015-10-20T16:43:14.395Z,85
2015-10-20T16:44:13.663Z,85
2015-10-20T16:45:15.385Z,85
2015-10-20T16:46:14.591Z,85
2015-10-20T16:47:13.796Z,85
2015-10-20T16:48:13.018Z,85
2015-10-20T16:49:12.224Z,85
2015-10-20T16:50:11.445Z,85
2015-10-20T16:51:10.651Z,85
2015-10-20T16:52:09.857Z,85
2015-10-20T16:54:08.331Z,85
2015-10-20T16:55:10.037Z,86
2015-10-20T16:56:09.524Z,86
2015-10-20T16:58:08.436Z,86
2015-10-20T16:59:07.907Z,86
2015-10-20T17:00:07.362Z,86
2015-10-20T17:01:06.850Z,85
2015-10-20T17:02:06.040Z,86
2015-10-20T17:03:05.512Z,86
2015-10-20T17:04:05.031Z,86
2015-10-20T17:06:06.208Z,86
2015-10-20T17:07:05.679Z,86
2015-10-20T17:08:05.150Z,86
2015-10-20T17:09:04.622Z,86
2015-10-20T17:10:04.078Z,86
2015-10-20T17:11:03.549Z,86
2015-10-20T17:12:03.020Z,86
2015-10-20T17:14:02.010Z,86
2015-10-20T17:15:03.732Z,86
2015-10-20T17:16:03.200Z,86
2015-10-20T17:17:02.672Z,86
2015-10-20T17:18:02.128Z,86
2015-10-20T17:19:01.599Z,86
2015-10-20T17:20:01.071Z,86
2015-10-20T17:21:00.527Z,86
2015-10-20T17:21:59.998Z,86
2015-10-20T17:22:59.455Z,86
2015-10-20T17:23:58.989Z,86
2015-10-20T17:25:00.710Z,86
2015-10-20T17:26:00.166Z,86
2015-10-20T17:26:59.902Z,86
2015-10-20T17:27:59.624Z,86
2015-10-20T17:29:59.082Z,86
2015-10-20T17:31:59.947Z,86
2015-10-20T17:32:58.247Z,86
2015-10-20T17:33:58.047Z,86
2015-10-20T17:34:59.753Z,86
2015-10-20T17:35:59.474Z,86
2015-10-20T17:36:59.196Z,86
2015-10-20T17:37:58.932Z,86
2015-10-20T17:38:58.654Z,86
2015-10-20T17:39:58.375Z,86
2015-10-20T17:40:58.051Z,86
2015-10-20T17:41:57.834Z,86
2015-10-20T17:43:57.340Z,86
2015-10-20T17:44:59.061Z,86
2015-10-20T17:45:58.797Z,86
2015-10-20T17:46:58.520Z,86
2015-10-20T17:47:58.240Z,86
2015-10-20T17:48:58.228Z,86
2015-10-20T17:49:58.214Z,86
2015-10-20T17:50:58.202Z,86
2015-10-20T17:51:58.173Z,86
2015-10-20T17:52:58.161Z,86
2015-10-20T17:53:58.195Z,86
2015-10-20T17:54:59.917Z,86
2015-10-20T17:55:59.887Z,86
2015-10-20T17:56:59.879Z,86
2015-10-20T17:57:59.865Z,86
2015-10-20T17:58:59.837Z,86
2015-10-20T18:00:59.812Z,87
2015-10-20T18:03:00.285Z,87
2015-10-20T18:04:00.584Z,87
2015-10-20T18:05:02.290Z,87
2015-10-20T18:07:02.781Z,86
2015-10-20T18:08:02.752Z,87
2015-10-20T18:09:03.615Z,87
2015-10-20T18:10:03.242Z,87
2015-10-20T18:11:03.479Z,87
2015-10-20T18:12:03.716Z,87
2015-10-20T18:13:03.953Z,87
2015-10-20T18:14:04.253Z,87
2015-10-20T18:15:05.959Z,86
2015-10-20T18:16:05.946Z,86
2015-10-20T18:17:05.933Z,87
2015-10-20T18:18:06.170Z,87
2015-10-20T18:19:06.406Z,86
2015-10-20T18:20:06.394Z,87
2015-10-20T18:21:06.631Z,87
2015-10-20T18:22:06.884Z,87
2015-10-20T18:23:06.668Z,87
2015-10-20T18:24:07.390Z,87
2015-10-20T18:25:09.127Z,87
2015-10-20T18:26:09.364Z,87
2015-10-20T18:27:09.585Z,87
2015-10-20T18:28:09.822Z,87
2015-10-20T18:29:10.058Z,87
2015-10-20T18:30:10.312Z,87
2015-10-20T18:31:10.549Z,87
2015-10-20T18:32:10.786Z,87
2015-10-20T18:33:11.024Z,87
2015-10-20T18:34:11.322Z,87
2015-10-20T18:35:13.044Z,87
2015-10-20T18:36:13.282Z,87
2015-10-20T18:37:13.518Z,87
2015-10-20T18:38:13.756Z,87
2015-10-20T18:40:14.230Z,87
2015-10-20T18:42:14.704Z,87
2015-10-20T18:44:15.257Z,87
2015-10-20T18:45:17.087Z,87
2015-10-20T18:46:17.218Z,87
2015-10-20T18:47:17.506Z,87
2015-10-20T18:48:17.674Z,87
2015-10-20T18:49:18.059Z,87
2015-10-20T18:50:18.264Z,87
2015-10-20T18:52:18.800Z,87
2015-10-20T18:53:18.866Z,87
2015-10-20T18:54:19.291Z,87
2015-10-20T18:55:20.886Z,87
2015-10-20T18:56:21.124Z,87
2015-10-20T18:58:21.603Z,87
2015-10-20T18:59:21.840Z,87
2015-10-20T19:00:22.077Z,87
2015-10-20T19:01:22.314Z,87
2015-10-20T19:04:23.354Z,87
2015-10-20T19:05:25.071Z,87
2015-10-20T19:06:25.309Z,87
2015-10-20T19:07:25.811Z,87
2015-10-20T19:08:26.298Z,87
2015-10-20T19:09:26.801Z,87